Time;durP1;ratioP1;P1;durP2;ratioP2;P2;SDS_P1;SDS_P2;PMS_P1;PMS_P2;Temp;Humidity;BMP_temperature;BMP_pressure;BME280_temperature;BME280_humidity;BME280_pressure;Samples;Min_cycle;Max_cycle;Signal;HPM_P1;HPM_P2
2023/10/13 00:01:17;;;;;;;;;;;;;;;13.29;100.00;100947.50;4903920;29;19926;-90
2023/10/13 00:04:05;;;;;;;;;;;;;;;13.33;100.00;100945.53;4905009;29;19927;-91
2023/10/13 00:06:52;;;;;;;;;;;;;;;13.38;100.00;100939.00;4920673;29;19945;-91
2023/10/13 00:09:38;;;;;;;;;;;;;;;13.44;100.00;100938.66;4934167;28;19966;-90
2023/10/13 00:12:23;;;;;;;;;;;;;;;13.49;100.00;100940.22;4902195;29;19981;-89
2023/10/13 00:15:13;;;;;;;;;;;;;;;13.54;100.00;100943.50;4929324;29;19936;-90
2023/10/13 00:17:59;;;;;;;;;;;;;;;13.57;100.00;100948.66;4918502;29;19930;-89
2023/10/13 00:20:51;;;;;;;;;;;;;;;13.63;100.00;100943.00;4915608;29;19966;-90
2023/10/13 00:23:43;;;;;;;;;;;;;;;13.70;100.00;100938.16;4918853;29;19974;-88
2023/10/13 00:26:29;;;;;;;;;;;;;;;13.78;100.00;100935.06;4911589;29;20581;-88
2023/10/13 00:29:16;;;;;;;;;;;;;;;13.83;100.00;100930.31;4905427;29;19930;-89
2023/10/13 00:32:05;;;;;;;;;;;;;;;13.88;100.00;100927.41;4917522;29;19934;-89
2023/10/13 00:34:56;;;;;;;;;;;;;;;13.95;100.00;100912.81;4903920;29;19934;-91
2023/10/13 00:37:44;;;;;;;;;;;;;;;14.06;100.00;100923.66;4903808;28;19970;-88
2023/10/13 00:48:54;;;;;;;;;;;;;;;14.33;100.00;100925.63;4927432;28;20508;-90
2023/10/13 00:51:46;;;;;;;;;;;;;;;14.40;100.00;100918.13;4913501;29;20053;-88
2023/10/13 00:54:35;;;;;;;;;;;;;;;14.46;100.00;100912.44;4915818;29;19931;-88
2023/10/13 00:57:27;;;;;;;;;;;;;;;14.50;100.00;100911.28;4913977;29;19965;-89
2023/10/13 01:00:18;;;;;;;;;;;;;;;14.56;100.00;100911.88;4915586;28;19942;-88
2023/10/13 01:03:07;;;;;;;;;;;;;;;14.58;100.00;100901.97;4915949;29;20405;-89
2023/10/13 01:05:55;;;;;;;;;;;;;;;14.60;100.00;100902.75;4926508;28;20061;-88
2023/10/13 01:08:44;;;;;;;;;;;;;;;14.63;100.00;100889.22;4930325;29;19931;-89
2023/10/13 01:11:31;;;;;;;;;;;;;;;14.64;100.00;100897.13;4929254;29;19980;-88
2023/10/13 01:14:18;;;;;;;;;;;;;;;14.66;100.00;100886.38;4909627;29;20548;-89
2023/10/13 01:17:03;;;;;;;;;;;;;;;14.67;100.00;100885.44;4916032;29;20445;-89
2023/10/13 01:19:49;;;;;;;;;;;;;;;14.67;100.00;100880.94;4931342;28;20539;-89
2023/10/13 01:22:36;;;;;;;;;;;;;;;14.69;100.00;100883.53;4914523;29;19922;-91
2023/10/13 01:25:27;;;;;;;;;;;;;;;14.70;100.00;100873.72;4902997;29;19949;-88
2023/10/13 01:28:16;;;;;;;;;;;;;;;14.69;100.00;100878.19;4929637;28;20025;-90
2023/10/13 01:31:01;;;;;;;;;;;;;;;14.70;100.00;100874.56;4916522;29;21494;-89
2023/10/13 01:33:47;;;;;;;;;;;;;;;14.71;100.00;100867.44;4915847;28;20267;-87
2023/10/13 01:36:36;;;;;;;;;;;;;;;14.72;100.00;100861.16;4908494;29;19931;-88
2023/10/13 01:39:26;;;;;;;;;;;;;;;14.75;100.00;100853.84;4914954;28;19941;-90
2023/10/13 01:42:14;;;;;;;;;;;;;;;14.75;100.00;100853.00;4900650;29;19943;-87
2023/10/13 01:45:05;;;;;;;;;;;;;;;14.76;100.00;100842.25;4910171;29;19930;-88
2023/10/13 01:47:50;;;;;;;;;;;;;;;14.76;100.00;100839.56;4904726;29;19935;-90
2023/10/13 01:50:36;;;;;;;;;;;;;;;14.78;100.00;100839.50;4927423;29;20037;-88
2023/10/13 01:53:22;;;;;;;;;;;;;;;14.80;100.00;100834.91;4900288;29;20025;-89
2023/10/13 01:56:11;;;;;;;;;;;;;;;14.80;100.00;100825.13;4911142;29;19969;-88
2023/10/13 01:58:57;;;;;;;;;;;;;;;14.82;100.00;100824.16;4901724;29;19985;-87
2023/10/13 02:01:42;;;;;;;;;;;;;;;14.83;100.00;100817.88;4902987;29;20489;-90
2023/10/13 02:04:28;;;;;;;;;;;;;;;14.84;100.00;100822.25;4916375;29;20887;-89
2023/10/13 02:07:15;;;;;;;;;;;;;;;14.84;100.00;100820.44;4910162;29;20028;-88
2023/10/13 02:10:11;;;;;;;;;;;;;;;14.87;100.00;100814.06;4917970;28;20710;-92
2023/10/13 02:12:57;;;;;;;;;;;;;;;14.89;100.00;100820.16;4901568;29;19961;-87
2023/10/13 02:15:47;;;;;;;;;;;;;;;14.89;100.00;100799.69;4928046;28;19937;-88
2023/10/13 02:18:41;;;;;;;;;;;;;;;14.90;100.00;100804.06;4902157;29;19984;-88
2023/10/13 02:21:31;;;;;;;;;;;;;;;14.92;100.00;100801.28;4927228;29;19938;-90
2023/10/13 02:24:29;;;;;;;;;;;;;;;14.95;100.00;100795.75;4904077;29;19934;-89
2023/10/13 02:27:15;;;;;;;;;;;;;;;14.96;100.00;100788.59;4900067;29;19939;-89
2023/10/13 02:30:01;;;;;;;;;;;;;;;14.97;100.00;100788.50;4898557;29;19937;-88
2023/10/13 02:32:49;;;;;;;;;;;;;;;14.98;100.00;100771.56;4910975;29;20623;-88
2023/10/13 02:35:41;;;;;;;;;;;;;;;15.01;100.00;100778.50;4912185;29;19939;-88
2023/10/13 02:38:27;;;;;;;;;;;;;;;15.02;100.00;100767.75;4905808;29;19949;-90
2023/10/13 02:41:20;;;;;;;;;;;;;;;15.02;100.00;100767.75;4910730;29;22281;-88
2023/10/13 02:44:06;;;;;;;;;;;;;;;15.03;100.00;100758.78;4927218;29;19938;-88
2023/10/13 02:46:55;;;;;;;;;;;;;;;15.03;100.00;100756.13;4901040;29;19933;-86
2023/10/13 02:49:46;;;;;;;;;;;;;;;15.06;100.00;100761.28;4913203;29;19935;-89
2023/10/13 02:52:37;;;;;;;;;;;;;;;15.07;100.00;100754.97;4906373;29;19933;-86
2023/10/13 02:55:27;;;;;;;;;;;;;;;15.07;100.00;100752.31;4918187;28;20351;-87
2023/10/13 02:58:14;;;;;;;;;;;;;;;15.08;100.00;100742.47;4932818;29;20405;-88
2023/10/13 03:01:00;;;;;;;;;;;;;;;15.09;100.00;100730.03;4906273;28;19931;-87
2023/10/13 03:03:51;;;;;;;;;;;;;;;15.09;100.00;100730.03;4915665;29;19935;-87
2023/10/13 03:06:40;;;;;;;;;;;;;;;15.07;100.00;100719.44;4902675;29;19942;-88
2023/10/13 03:09:25;;;;;;;;;;;;;;;15.06;100.00;100720.41;4916406;29;20410;-89
2023/10/13 03:12:11;;;;;;;;;;;;;;;15.04;100.00;100720.50;4907149;29;19996;-87
2023/10/13 03:14:57;;;;;;;;;;;;;;;15.04;100.00;100711.66;4913451;29;19923;-85
2023/10/13 03:17:44;;;;;;;;;;;;;;;15.03;100.00;100708.13;4927725;29;19934;-86
2023/10/13 03:20:32;;;;;;;;;;;;;;;15.03;100.00;100705.47;4928912;29;19949;-86
2023/10/13 03:23:18;;;;;;;;;;;;;;;15.03;100.00;100704.63;4912613;29;19930;-86
2023/10/13 03:26:08;;;;;;;;;;;;;;;15.02;100.00;100693.09;4928856;28;19938;-86
2023/10/13 03:28:56;;;;;;;;;;;;;;;15.03;100.00;100688.66;4902523;29;20696;-85
2023/10/13 03:31:45;;;;;;;;;;;;;;;15.02;100.00;100682.44;4928030;28;20011;-85
2023/10/13 03:34:31;;;;;;;;;;;;;;;15.01;100.00;100679.88;4929249;29;19941;-85
2023/10/13 03:37:18;;;;;;;;;;;;;;;15.00;100.00;100654.19;4913077;29;21475;-85
2023/10/13 03:43:11;;;;;;;;;;;;;;;14.98;100.00;100638.28;4926529;29;20061;-84
2023/10/13 03:46:00;;;;;;;;;;;;;;;14.99;100.00;100628.47;4900503;29;20025;-84
2023/10/13 03:48:54;;;;;;;;;;;;;;;15.00;100.00;100620.38;4915367;29;19934;-85
2023/10/13 03:51:39;;;;;;;;;;;;;;;15.00;100.00;100619.53;4915318;29;19931;-85
2023/10/13 03:54:29;;;;;;;;;;;;;;;15.01;100.00;100610.56;4912803;29;20384;-84
2023/10/13 03:57:16;;;;;;;;;;;;;;;15.02;100.00;100596.28;4919130;29;20394;-84
2023/10/13 04:00:09;;;;;;;;;;;;;;;15.03;100.00;100584.69;4928808;28;20414;-83
2023/10/13 04:03:07;;;;;;;;;;;;;;;15.04;100.00;100579.22;4924751;29;19927;-83
2023/10/13 04:06:06;;;;;;;;;;;;;;;15.05;100.00;100570.25;4914835;28;19931;-84
2023/10/13 04:13:10;;;;;;;;;;;;;;;15.05;100.00;100540.94;4863406;29;20030;-83
2023/10/13 04:15:27;;;;;;;;;;;;;;;15.07;100.00;100539.03;4873688;29;20020;-83
2023/10/13 04:18:33;;;;;;;;;;;;;;;15.07;100.00;100540.84;4917617;29;19930;-83
2023/10/13 04:21:39;;;;;;;;;;;;;;;15.07;100.00;100525.69;4927198;28;21747;-83
2023/10/13 04:30:10;;;;;;;;;;;;;;;15.05;100.00;100516.94;4925894;29;20438;-83
2023/10/13 04:36:21;;;;;;;;;;;;;;;15.04;100.00;100483.25;4927038;29;19989;-84
2023/10/13 04:47:29;;;;;;;;;;;;;;;15.02;100.00;100482.50;4927363;28;19954;-82
2023/10/13 04:50:27;;;;;;;;;;;;;;;15.03;100.00;100472.72;4926826;28;19992;-83
2023/10/13 04:53:28;;;;;;;;;;;;;;;15.01;100.00;100470.16;4925674;28;20305;-84
2023/10/13 04:59:18;;;;;;;;;;;;;;;15.00;100.00;100451.59;4927215;29;21411;-84
2023/10/13 05:02:42;;;;;;;;;;;;;;;14.99;100.00;100445.41;4924758;28;19927;-84
2023/10/13 05:45:36;;;;;;;;;;;;;;;14.74;100.00;100363.66;4926726;28;19969;-81
2023/10/13 05:48:42;;;;;;;;;;;;;;;14.70;100.00;100363.00;4911009;29;20438;-81
2023/10/13 05:51:46;;;;;;;;;;;;;;;14.67;100.00;100358.75;4925903;28;19942;-81
2023/10/13 06:28:43;;;;;;;;;;;;;;;14.80;100.00;100324.13;4919644;29;19926;-84
2023/10/13 06:31:29;;;;;;;;;;;;;;;14.85;100.00;100306.94;4918800;28;19978;-85
2023/10/13 06:34:15;;;;;;;;;;;;;;;14.88;100.00;100338.72;4917723;29;20927;-85
2023/10/13 06:37:01;;;;;;;;;;;;;;;14.92;100.00;100326.84;4921994;28;19934;-84
2023/10/13 06:39:46;;;;;;;;;;;;;;;14.96;100.00;100333.69;4931982;29;19931;-84
2023/10/13 06:42:42;;;;;;;;;;;;;;;14.96;100.00;100317.69;4931590;29;19926;-91
2023/10/13 06:45:28;;;;;;;;;;;;;;;14.96;100.00;100325.69;4931307;29;20386;-85
2023/10/13 06:48:16;;;;;;;;;;;;;;;14.97;100.00;100323.88;4931649;29;20533;-84
2023/10/13 06:51:04;;;;;;;;;;;;;;;14.97;100.00;100324.72;4931680;29;19931;-84
2023/10/13 06:53:56;;;;;;;;;;;;;;;14.97;100.00;100319.38;4930911;28;20053;-84
2023/10/13 06:56:41;;;;;;;;;;;;;;;14.97;100.00;100310.56;4932112;29;20073;-85
2023/10/13 06:59:32;;;;;;;;;;;;;;;14.97;100.00;100307.91;4930622;29;19927;-85
2023/10/13 07:02:33;;;;;;;;;;;;;;;14.95;100.00;100297.34;4929864;28;19935;-84
2023/10/13 07:05:19;;;;;;;;;;;;;;;14.95;100.00;100305.34;4929992;28;19927;-86
2023/10/13 07:08:08;;;;;;;;;;;;;;;14.93;100.00;100302.78;4888398;29;19938;-86
2023/10/13 07:11:05;;;;;;;;;;;;;;;14.92;100.00;100292.22;4894049;28;19935;-85
2023/10/13 07:13:52;;;;;;;;;;;;;;;14.89;100.00;100293.31;4892022;29;19938;-84
2023/10/13 07:16:47;;;;;;;;;;;;;;;14.88;100.00;100293.41;4886504;29;20147;-83
2023/10/13 07:19:33;;;;;;;;;;;;;;;14.85;100.00;100293.63;4905580;29;20033;-82
2023/10/13 07:22:19;;;;;;;;;;;;;;;14.82;100.00;100293.84;4895977;28;21886;-81
2023/10/13 07:25:06;;;;;;;;;;;;;;;14.78;100.00;100294.06;4879156;29;19975;-83
2023/10/13 07:27:54;;;;;;;;;;;;;;;14.78;100.00;100279.91;4898082;29;21950;-82
2023/10/13 07:30:49;;;;;;;;;;;;;;;14.74;100.00;100270.41;4887669;29;19931;-82
2023/10/13 07:33:35;;;;;;;;;;;;;;;14.73;100.00;100282.88;4881206;29;21962;-81
2023/10/13 07:39:25;;;;;;;;;;;;;;;14.73;100.00;100282.00;4890220;29;19935;-83
2023/10/13 07:42:19;;;;;;;;;;;;;;;14.71;100.00;100279.44;4893254;29;20038;-83
2023/10/13 07:45:06;;;;;;;;;;;;;;;14.70;100.00;100256.44;4888497;29;22018;-82
2023/10/13 07:47:52;;;;;;;;;;;;;;;14.71;100.00;100247.47;4884831;29;19927;-81
2023/10/13 07:50:38;;;;;;;;;;;;;;;14.72;100.00;100243.00;4890403;29;19986;-83
2023/10/13 07:53:24;;;;;;;;;;;;;;;14.71;100.00;100226.16;4891379;29;20516;-82
2023/10/13 07:56:13;;;;;;;;;;;;;;;14.72;100.00;100225.22;4881962;29;19943;-83
2023/10/13 07:59:01;;;;;;;;;;;;;;;14.75;100.00;100217.03;4902737;29;19931;-83
2023/10/13 08:01:47;;;;;;;;;;;;;;;14.79;100.00;100213.19;4882414;29;19934;-83
2023/10/13 08:04:35;;;;;;;;;;;;;;;14.84;100.00;100209.31;4888999;29;20433;-84
2023/10/13 08:07:27;;;;;;;;;;;;;;;14.89;100.00;100191.19;4901266;29;20398;-82
2023/10/13 08:10:15;;;;;;;;;;;;;;;14.93;100.00;100182.00;4888183;29;19939;-81
2023/10/13 08:13:01;;;;;;;;;;;;;;;14.97;100.00;100179.97;4885828;29;20026;-84
2023/10/13 08:15:47;;;;;;;;;;;;;;;15.00;100.00;100171.72;4876878;28;20425;-81
2023/10/13 08:18:35;;;;;;;;;;;;;;;15.00;100.00;100169.06;4885374;29;20418;-82
2023/10/13 08:21:24;;;;;;;;;;;;;;;15.01;100.00;100166.28;4889371;29;19978;-82
2023/10/13 08:24:09;;;;;;;;;;;;;;;15.02;100.00;100169.78;4886744;29;19928;-83
2023/10/13 08:33:16;;;;;;;;;;;;;;;15.03;100.00;100161.69;4896845;29;20029;-82
2023/10/13 08:42:52;;;;;;;;;;;;;;;15.08;100.00;100118.69;4848158;29;19936;-83
2023/10/13 08:48:31;;;;;;;;;;;;;;;15.20;100.00;100124.91;4901174;29;19931;-82
2023/10/13 08:51:43;;;;;;;;;;;;;;;15.28;100.00;100105.63;4888804;29;19961;-83
2023/10/13 08:54:34;;;;;;;;;;;;;;;15.36;100.00;100118.41;4884179;29;19991;-83
2023/10/13 08:57:34;;;;;;;;;;;;;;;15.44;100.00;100110.63;4871965;29;20641;-88
2023/10/13 09:00:28;;;;;;;;;;;;;;;15.50;100.00;100102.16;4886731;29;19966;-82
2023/10/13 09:03:38;;;;;;;;;;;;;;;15.58;100.00;100097.06;4886892;29;19931;-82
2023/10/13 09:06:26;;;;;;;;;;;;;;;15.67;100.00;100091.97;4888946;29;20540;-82
2023/10/13 09:09:26;;;;;;;;;;;;;;;15.72;100.00;100095.13;4896993;29;19939;-83
2023/10/13 09:12:17;;;;;;;;;;;;;;;15.80;100.00;100094.53;4882604;29;19935;-84
2023/10/13 09:15:59;;;;;;;;;;;;;;;15.87;100.00;100091.22;4887271;29;20386;-86
2023/10/13 09:18:13;;;;;;;;;;;;;;;15.94;100.00;100085.44;4882936;29;19927;-84
2023/10/13 09:24:51;;;;;;;;;;;;;;;16.06;100.00;100071.09;4885375;29;19942;-86
2023/10/13 09:27:19;;;;;;;;;;;;;;;16.14;100.00;100063.31;4877763;29;19931;-87
2023/10/13 09:30:24;;;;;;;;;;;;;;;16.21;100.00;100070.81;4885976;29;19927;-84
2023/10/13 09:33:15;;;;;;;;;;;;;;;16.31;100.00;100073.59;4887818;29;19942;-85
2023/10/13 09:36:00;;;;;;;;;;;;;;;16.41;100.00;100059.34;4885948;29;19936;-86
2023/10/13 09:39:10;;;;;;;;;;;;;;;16.51;100.00;100046.09;4873094;29;20026;-84
2023/10/13 09:41:57;;;;;;;;;;;;;;;16.61;100.00;100027.44;4884704;29;19935;-83
2023/10/13 09:44:49;;;;;;;;;;;;;;;16.67;100.00;100028.78;4886585;29;19927;-85
2023/10/13 09:47:40;;;;;;;;;;;;;;;16.76;100.00;100056.53;4879912;29;20314;-85
2023/10/13 09:50:26;;;;;;;;;;;;;;;16.82;100.00;100051.53;4872123;29;19927;-87
2023/10/13 09:53:13;;;;;;;;;;;;;;;16.89;100.00;100043.81;4873110;29;20046;-86
2023/10/13 09:56:14;;;;;;;;;;;;;;;16.94;100.00;100041.63;4883153;29;21250;-85
2023/10/13 09:59:10;;;;;;;;;;;;;;;16.95;100.00;100040.63;4895626;29;20063;-85
2023/10/13 10:01:58;;;;;;;;;;;;;;;16.97;100.00;100046.72;4887365;29;19931;-85
2023/10/13 10:04:55;;;;;;;;;;;;;;;16.99;100.00;100035.88;4870296;29;19927;-85
2023/10/13 10:07:43;;;;;;;;;;;;;;;17.00;100.00;100028.72;4888642;29;21014;-85
2023/10/13 10:10:52;;;;;;;;;;;;;;;17.03;100.00;100025.78;4909891;29;19931;-84
2023/10/13 10:13:46;;;;;;;;;;;;;;;17.10;100.00;100019.78;4910123;28;19934;-85
2023/10/13 10:16:46;;;;;;;;;;;;;;;17.22;100.00;100025.91;4910258;29;19938;-82
2023/10/13 10:19:35;;;;;;;;;;;;;;;17.31;100.00;100034.09;4922905;28;20018;-84
2023/10/13 10:22:26;;;;;;;;;;;;;;;17.37;100.00;100026.41;4911734;28;19926;-84
2023/10/13 10:25:25;;;;;;;;;;;;;;;17.43;100.00;100011.63;4909370;29;19930;-87
2023/10/13 10:28:15;;;;;;;;;;;;;;;17.48;100.00;99996.03;4912312;28;21571;-86
2023/10/13 10:31:05;;;;;;;;;;;;;;;17.53;100.00;99997.47;4923359;28;20381;-85
2023/10/13 10:33:56;;;;;;;;;;;;;;;17.53;100.00;100013.50;4898829;28;19993;-84
2023/10/13 10:36:43;;;;;;;;;;;;;;;17.53;100.00;99997.47;4911241;29;19937;-86
2023/10/13 10:39:44;;;;;;;;;;;;;;;17.54;100.00;99991.94;4900285;28;19966;-87
2023/10/13 10:42:30;;;;;;;;;;;;;;;17.56;100.00;99997.16;4914794;29;20326;-88
2023/10/13 10:45:21;;;;;;;;;;;;;;;17.62;100.00;99988.59;4897448;29;19974;-86
2023/10/13 10:48:17;;;;;;;;;;;;;;;17.73;100.00;99987.66;4909902;28;19935;-87
2023/10/13 10:51:21;;;;;;;;;;;;;;;17.80;100.00;99974.56;4895635;29;20389;-82
2023/10/13 10:54:13;;;;;;;;;;;;;;;17.81;100.00;99963.69;4911580;29;20476;-85
2023/10/13 10:57:10;;;;;;;;;;;;;;;17.78;100.00;99951.44;4910599;29;19940;-89
2023/10/13 11:00:11;;;;;;;;;;;;;;;17.79;100.00;99965.69;4903709;29;19973;-87
2023/10/13 11:02:56;;;;;;;;;;;;;;;17.78;100.00;99964.00;4898717;29;20257;-87
2023/10/13 11:05:46;;;;;;;;;;;;;;;17.73;100.00;99967.09;4903838;29;19934;-88
2023/10/13 11:08:31;;;;;;;;;;;;;;;17.71;100.00;99960.19;4924859;28;20453;-88
2023/10/13 11:11:30;;;;;;;;;;;;;;;17.69;100.00;99970.19;4909735;28;20466;-88
2023/10/13 11:14:22;;;;;;;;;;;;;;;17.69;100.00;99967.50;4927166;29;21622;-88
2023/10/13 11:17:21;;;;;;;;;;;;;;;17.70;100.00;99964.66;4935971;28;19953;-95
2023/10/13 11:20:16;;;;;;;;;;;;;;;17.73;100.00;99958.19;4930549;29;19934;-96
2023/10/13 11:23:13;;;;;;;;;;;;;;;17.74;100.00;99963.41;4923081;28;21458;-94
2023/10/13 11:25:59;;;;;;;;;;;;;;;17.71;100.00;99944.13;4908147;28;20851;-87
2023/10/13 11:28:55;;;;;;;;;;;;;;;17.63;100.00;99945.66;4903924;29;19939;-86
2023/10/13 11:31:41;;;;;;;;;;;;;;;17.53;100.00;99947.44;4927628;29;19930;-85
2023/10/13 11:34:39;;;;;;;;;;;;;;;17.48;100.00;99947.00;4928745;29;19961;-86
2023/10/13 11:37:37;;;;;;;;;;;;;;;17.35;100.00;99968.66;4914920;28;19938;-85
2023/10/13 11:43:27;;;;;;;;;;;;;;;17.01;100.00;99963.56;4911379;28;19953;-86
2023/10/13 11:46:15;;;;;;;;;;;;;;;16.94;100.00;99966.75;4913448;28;20378;-86
2023/10/13 11:49:13;;;;;;;;;;;;;;;16.91;100.00;99953.69;4911368;28;20019;-86
2023/10/13 11:52:15;;;;;;;;;;;;;;;16.92;100.00;99947.34;4912924;28;19927;-88
2023/10/13 11:55:01;;;;;;;;;;;;;;;16.93;100.00;99946.34;4913930;28;20086;-87
2023/10/13 11:57:47;;;;;;;;;;;;;;;16.95;100.00;99925.69;4900856;28;19934;-88
2023/10/13 12:00:54;;;;;;;;;;;;;;;16.97;100.00;99929.09;4910554;29;20409;-86
2023/10/13 12:09:41;;;;;;;;;;;;;;;17.04;100.00;99952.63;4910784;29;19937;-86
2023/10/13 12:12:27;;;;;;;;;;;;;;;17.01;100.00;99931.47;4913774;29;20403;-85
2023/10/13 12:15:25;;;;;;;;;;;;;;;17.00;100.00;99943.16;4910785;29;20405;-87
2023/10/13 12:18:14;;;;;;;;;;;;;;;16.91;100.00;99940.31;4911173;29;20021;-89
2023/10/13 12:21:07;;;;;;;;;;;;;;;16.84;100.00;99944.50;4912262;29;19935;-86
2023/10/13 12:23:55;;;;;;;;;;;;;;;16.77;100.00;99927.28;4899497;29;20415;-84
2023/10/13 12:26:42;;;;;;;;;;;;;;;16.70;100.00;99916.28;4910072;29;20779;-82
2023/10/13 12:29:28;;;;;;;;;;;;;;;16.66;100.00;99926.38;4926570;29;20450;-82
2023/10/13 12:32:20;;;;;;;;;;;;;;;16.64;100.00;99917.66;4910470;29;19938;-83
2023/10/13 12:37:51;;;;;;;;;;;;;;;16.62;100.00;99898.22;4927259;29;19926;-84
2023/10/13 12:48:55;;;;;;;;;;;;;;;16.54;100.00;99904.25;4913331;28;19934;-83
2023/10/13 12:50:23;;;;;;;;;;;;;;;16.51;100.00;99901.81;4912365;28;19931;-84
2023/10/13 12:53:13;;;;;;;;;;;;;;;16.48;100.00;99898.56;4912730;29;19964;-84
2023/10/13 12:55:59;;;;;;;;;;;;;;;16.47;100.00;99899.53;4925469;29;19945;-83
2023/10/13 12:58:51;;;;;;;;;;;;;;;16.45;100.00;99888.16;4921461;28;19941;-82
2023/10/13 13:01:42;;;;;;;;;;;;;;;16.41;100.00;99869.69;4911626;29;20653;-85
2023/10/13 13:04:36;;;;;;;;;;;;;;;16.40;100.00;99873.34;4899224;29;20398;-84
2023/10/13 13:07:22;;;;;;;;;;;;;;;16.37;100.00;99870.09;4923322;29;19934;-82
2023/10/13 13:10:08;;;;;;;;;;;;;;;16.36;100.00;99876.44;4907245;28;20424;-83
2023/10/13 13:12:54;;;;;;;;;;;;;;;16.34;100.00;99867.72;4922656;29;20322;-83
2023/10/13 13:15:40;;;;;;;;;;;;;;;16.34;100.00;99867.72;4912800;28;19942;-84
2023/10/13 13:18:26;;;;;;;;;;;;;;;16.33;100.00;99861.50;4922678;28;19966;-83
2023/10/13 13:21:21;;;;;;;;;;;;;;;16.35;100.00;99864.88;4921882;28;19922;-84
2023/10/13 13:24:10;;;;;;;;;;;;;;;16.37;100.00;99838.91;4922616;28;19977;-82
2023/10/13 13:26:56;;;;;;;;;;;;;;;16.40;100.00;99830.63;4922690;28;19931;-82
2023/10/13 13:29:44;;;;;;;;;;;;;;;16.44;100.00;99847.22;4908253;28;20594;-81
2023/10/13 13:32:30;;;;;;;;;;;;;;;16.50;100.00;99851.22;4922280;28;19934;-87
2023/10/13 13:35:18;;;;;;;;;;;;;;;16.55;100.00;99843.63;4907580;29;20405;-84
2023/10/13 13:38:09;;;;;;;;;;;;;;;16.59;100.00;99857.56;4923371;28;19953;-87
2023/10/13 13:40:55;;;;;;;;;;;;;;;16.60;100.00;99852.09;4908223;29;20351;-88
2023/10/13 13:43:50;;;;;;;;;;;;;;;16.64;100.00;99826.81;4915349;29;19935;-90
2023/10/13 13:46:41;;;;;;;;;;;;;;;16.69;100.00;99851.28;4899987;29;20477;-88
2023/10/13 13:49:39;;;;;;;;;;;;;;;16.75;100.00;99833.03;4897578;29;19935;-86
2023/10/13 13:52:33;;;;;;;;;;;;;;;16.79;100.00;99839.81;4914012;29;19934;-88
2023/10/13 13:55:23;;;;;;;;;;;;;;;16.83;100.00;99828.69;4911263;29;20421;-87
2023/10/13 13:58:09;;;;;;;;;;;;;;;16.86;100.00;99824.06;4914754;29;19931;-90
2023/10/13 14:01:11;;;;;;;;;;;;;;;16.84;100.00;99827.72;4916124;29;19973;-88
2023/10/13 14:04:02;;;;;;;;;;;;;;;16.85;100.00;99817.88;4912267;28;20391;-88
2023/10/13 14:06:50;;;;;;;;;;;;;;;16.85;100.00;99825.91;4904466;29;19927;-92
2023/10/13 14:09:40;;;;;;;;;;;;;;;16.85;100.00;99823.22;4906209;29;20065;-93
2023/10/13 14:12:29;;;;;;;;;;;;;;;16.90;100.00;99830.84;4902692;29;19966;-90
2023/10/13 14:15:23;;;;;;;;;;;;;;;16.93;100.00;99819.84;4904897;29;20017;-87
2023/10/13 14:18:14;;;;;;;;;;;;;;;16.96;100.00;99819.59;4915147;29;19931;-89
2023/10/13 14:21:03;;;;;;;;;;;;;;;17.00;100.00;99831.69;4924021;29;19962;-91
2023/10/13 14:23:51;;;;;;;;;;;;;;;17.03;100.00;99842.16;4920995;29;20500;-89
2023/10/13 14:26:37;;;;;;;;;;;;;;;17.06;100.00;99831.19;4911048;29;20458;-91
2023/10/13 14:29:26;;;;;;;;;;;;;;;17.12;100.00;99835.16;4924938;29;19994;-93
2023/10/13 14:32:14;;;;;;;;;;;;;;;17.14;100.00;99837.69;4915087;28;20420;-92
2023/10/13 14:35:00;;;;;;;;;;;;;;;17.15;100.00;99834.88;4939162;28;19927;-93
2023/10/13 14:37:46;;;;;;;;;;;;;;;17.15;100.00;99834.88;4922655;28;20289;-93
2023/10/13 14:40:31;;;;;;;;;;;;;;;17.18;100.00;99844.44;4909932;28;19944;-87
2023/10/13 14:43:17;;;;;;;;;;;;;;;17.21;100.00;99826.31;4923452;29;19941;-85
2023/10/13 14:46:07;;;;;;;;;;;;;;;17.22;100.00;99862.75;4923635;28;19946;-85
2023/10/13 14:48:53;;;;;;;;;;;;;;;17.24;100.00;99849.25;4926071;28;19950;-90
2023/10/13 14:51:39;;;;;;;;;;;;;;;17.24;100.00;99855.47;4914471;29;19990;-86
2023/10/13 14:54:32;;;;;;;;;;;;;;;17.24;100.00;99867.97;4927961;29;19961;-85
2023/10/13 14:57:24;;;;;;;;;;;;;;;17.25;100.00;99867.00;4911473;28;19937;-84
2023/10/13 15:00:14;;;;;;;;;;;;;;;17.27;100.00;99866.88;4912415;29;19941;-86
2023/10/13 15:03:01;;;;;;;;;;;;;;;17.28;100.00;99860.53;4913488;29;20530;-84
2023/10/13 15:05:46;;;;;;;;;;;;;;;17.31;100.00;99857.56;4916314;28;19935;-85
2023/10/13 15:08:32;;;;;;;;;;;;;;;17.30;100.00;99858.53;4930086;28;19938;-84
2023/10/13 15:11:18;;;;;;;;;;;;;;;17.30;100.00;99837.16;4928467;28;19930;-83
2023/10/13 15:14:06;;;;;;;;;;;;;;;17.33;100.00;99836.88;4915405;29;19931;-84
2023/10/13 15:17:00;;;;;;;;;;;;;;;17.33;100.00;99848.41;4901101;29;19930;-87
2023/10/13 15:19:45;;;;;;;;;;;;;;;17.34;100.00;99843.94;4910874;29;19958;-88
2023/10/13 15:22:34;;;;;;;;;;;;;;;17.34;100.00;99839.41;4905757;29;19938;-87
2023/10/13 15:25:31;;;;;;;;;;;;;;;17.33;100.00;99839.56;4901725;28;19931;-88
2023/10/13 15:28:20;;;;;;;;;;;;;;;17.32;100.00;99822.66;4915823;28;20102;-86
2023/10/13 15:31:22;;;;;;;;;;;;;;;17.35;100.00;99832.25;4900319;29;21648;-87
2023/10/13 15:34:14;;;;;;;;;;;;;;;17.34;100.00;99811.81;4912016;28;19968;-86
2023/10/13 15:37:00;;;;;;;;;;;;;;;17.32;100.00;99811.13;4928222;28;19934;-91
2023/10/13 15:39:45;;;;;;;;;;;;;;;17.29;100.00;99800.69;4916956;29;20276;-88
2023/10/13 15:42:31;;;;;;;;;;;;;;;17.26;100.00;99804.47;4907756;29;20029;-85
2023/10/13 15:45:17;;;;;;;;;;;;;;;17.25;100.00;99797.44;4920361;28;20358;-88
2023/10/13 15:48:04;;;;;;;;;;;;;;;17.24;100.00;99811.81;4924987;28;20029;-92
2023/10/13 15:50:50;;;;;;;;;;;;;;;17.22;100.00;99798.56;4923052;29;19935;-92
2023/10/13 15:53:36;;;;;;;;;;;;;;;17.20;100.00;99805.91;4906607;28;19930;-92
2023/10/13 15:56:21;;;;;;;;;;;;;;;17.20;100.00;99805.03;4913721;29;19984;-94
2023/10/13 15:59:07;;;;;;;;;;;;;;;17.16;100.00;99787.59;4912950;29;19931;-92
2023/10/13 16:01:57;;;;;;;;;;;;;;;17.12;100.00;99789.72;4903341;29;20361;-88
2023/10/13 16:04:44;;;;;;;;;;;;;;;17.09;100.00;99788.16;4932521;28;19927;-87
2023/10/13 16:07:30;;;;;;;;;;;;;;;17.07;100.00;99790.13;4912401;29;20544;-87
2023/10/13 16:10:16;;;;;;;;;;;;;;;17.04;100.00;99773.47;4913312;28;19971;-88
2023/10/13 16:13:05;;;;;;;;;;;;;;;16.99;100.00;99779.22;4923592;28;20001;-88
2023/10/13 16:15:52;;;;;;;;;;;;;;;16.94;100.00;99782.31;4908837;28;19961;-88
2023/10/13 16:18:37;;;;;;;;;;;;;;;16.91;100.00;99792.44;4917224;29;19922;-95
2023/10/13 16:21:23;;;;;;;;;;;;;;;16.87;100.00;99782.97;4922714;29;19930;-94
2023/10/13 16:24:11;;;;;;;;;;;;;;;16.81;100.00;99779.91;4925844;29;19930;-95
2023/10/13 16:26:58;;;;;;;;;;;;;;;16.76;100.00;99787.47;4926843;29;19973;-92
2023/10/13 16:29:44;;;;;;;;;;;;;;;16.72;100.00;99780.69;4910961;29;19985;-95
2023/10/13 16:32:30;;;;;;;;;;;;;;;16.68;100.00;99779.28;4915799;29;19931;-93
2023/10/13 16:35:17;;;;;;;;;;;;;;;16.66;100.00;99771.41;4929471;29;19937;-94
2023/10/13 16:38:06;;;;;;;;;;;;;;;16.64;100.00;99765.34;4928773;29;19930;-93
2023/10/13 16:40:53;;;;;;;;;;;;;;;16.65;100.00;99763.50;4913953;28;20119;-96
2023/10/13 16:43:39;;;;;;;;;;;;;;;16.65;100.00;99775.06;4924653;29;20378;-94
2023/10/13 16:46:26;;;;;;;;;;;;;;;16.65;100.00;99775.06;4920072;29;19931;-88
2023/10/13 16:49:11;;;;;;;;;;;;;;;16.65;100.00;99761.69;4911669;29;19934;-90
2023/10/13 16:51:57;;;;;;;;;;;;;;;16.64;100.00;99769.84;4939044;28;19930;-90
2023/10/13 16:54:45;;;;;;;;;;;;;;;16.65;100.00;99777.72;4907316;29;19973;-95
2023/10/13 16:57:33;;;;;;;;;;;;;;;16.65;100.00;99764.38;4912080;29;19977;-88